sensor_id;sensor_type;location;lat;lon;timestamp;pressure;altitude;pressure_sealevel;temperature;humidity
9750;BME280;4914;43.218;27.908;2022-07-04T00:02:23;100920.63;;;20.70;100.00
9750;BME280;4914;43.218;27.908;2022-07-04T00:04:50;100920.00;;;20.60;100.00
9750;BME280;4914;43.218;27.908;2022-07-04T00:07:16;100917.81;;;20.56;100.00
9750;BME280;4914;43.218;27.908;2022-07-04T00:09:44;100922.53;;;20.62;100.00
9750;BME280;4914;43.218;27.908;2022-07-04T00:12:11;100927.06;;;20.61;100.00
9750;BME280;4914;43.218;27.908;2022-07-04T00:14:38;100920.34;;;20.57;100.00
9750;BME280;4914;43.218;27.908;2022-07-04T00:17:07;100923.56;;;20.53;100.00
9750;BME280;4914;43.218;27.908;2022-07-04T00:19:34;100926.44;;;20.51;100.00
9750;BME280;4914;43.218;27.908;2022-07-04T00:22:01;100924.78;;;20.42;100.00
9750;BME280;4914;43.218;27.908;2022-07-04T00:24:28;100917.03;;;20.39;100.00
9750;BME280;4914;43.218;27.908;2022-07-04T00:26:55;100916.19;;;20.38;100.00
9750;BME280;4914;43.218;27.908;2022-07-04T00:29:21;100916.38;;;20.37;100.00
9750;BME280;4914;43.218;27.908;2022-07-04T00:31:48;100913.38;;;20.32;100.00
9750;BME280;4914;43.218;27.908;2022-07-04T00:34:17;100916.91;;;20.32;100.00
9750;BME280;4914;43.218;27.908;2022-07-04T00:36:44;100917.06;;;20.31;100.00
9750;BME280;4914;43.218;27.908;2022-07-04T00:39:10;100911.81;;;20.29;100.00
9750;BME280;4914;43.218;27.908;2022-07-04T00:41:37;100902.22;;;20.27;100.00
9750;BME280;4914;43.218;27.908;2022-07-04T00:44:06;100902.75;;;20.22;100.00
9750;BME280;4914;43.218;27.908;2022-07-04T00:46:33;100903.59;;;20.23;100.00
9750;BME280;4914;43.218;27.908;2022-07-04T00:49:01;100899.19;;;20.22;100.00
9750;BME280;4914;43.218;27.908;2022-07-04T00:51:30;100901.22;;;20.20;100.00
9750;BME280;4914;43.218;27.908;2022-07-04T00:53:58;100899.19;;;20.22;100.00
9750;BME280;4914;43.218;27.908;2022-07-04T00:56:25;100904.94;;;20.19;100.00
9750;BME280;4914;43.218;27.908;2022-07-04T00:58:52;100907.81;;;20.17;100.00
9750;BME280;4914;43.218;27.908;2022-07-04T01:01:20;100898.19;;;20.15;100.00
9750;BME280;4914;43.218;27.908;2022-07-04T01:03:48;100889.47;;;20.13;100.00
9750;BME280;4914;43.218;27.908;2022-07-04T01:06:16;100895.34;;;20.16;100.00
9750;BME280;4914;43.218;27.908;2022-07-04T01:08:44;100896.88;;;20.11;100.00
9750;BME280;4914;43.218;27.908;2022-07-04T01:11:11;100893.53;;;20.09;100.00
9750;BME280;4914;43.218;27.908;2022-07-04T01:13:39;100892.69;;;20.08;100.00
9750;BME280;4914;43.218;27.908;2022-07-04T01:16:08;100893.16;;;20.12;100.00
9750;BME280;4914;43.218;27.908;2022-07-04T01:18:35;100890.97;;;20.07;100.00
9750;BME280;4914;43.218;27.908;2022-07-04T01:21:04;100894.03;;;20.04;100.00
9750;BME280;4914;43.218;27.908;2022-07-04T01:23:31;100887.59;;;20.05;100.00
9750;BME280;4914;43.218;27.908;2022-07-04T01:25:58;100892.84;;;20.07;100.00
9750;BME280;4914;43.218;27.908;2022-07-04T01:28:25;100896.22;;;20.09;100.00
9750;BME280;4914;43.218;27.908;2022-07-04T01:30:52;100891.84;;;20.08;100.00
9750;BME280;4914;43.218;27.908;2022-07-04T01:33:19;100892.69;;;20.08;100.00
9750;BME280;4914;43.218;27.908;2022-07-04T01:35:46;100901.94;;;20.14;100.00
9750;BME280;4914;43.218;27.908;2022-07-04T01:38:15;100910.03;;;20.14;100.00
9750;BME280;4914;43.218;27.908;2022-07-04T01:40:42;100903.25;;;20.18;100.00
9750;BME280;4914;43.218;27.908;2022-07-04T01:43:09;100905.28;;;20.32;100.00
9750;BME280;4914;43.218;27.908;2022-07-04T01:45:36;100910.97;;;20.29;100.00
9750;BME280;4914;43.218;27.908;2022-07-04T01:48:04;100912.66;;;20.30;100.00
9750;BME280;4914;43.218;27.908;2022-07-04T01:50:31;100906.59;;;20.36;100.00
9750;BME280;4914;43.218;27.908;2022-07-04T01:52:59;100908.97;;;20.31;100.00
9750;BME280;4914;43.218;27.908;2022-07-04T01:55:27;100907.59;;;20.35;100.00
9750;BME280;4914;43.218;27.908;2022-07-04T01:57:54;100909.47;;;20.26;100.00
9750;BME280;4914;43.218;27.908;2022-07-04T02:00:22;100908.47;;;20.19;100.00
9750;BME280;4914;43.218;27.908;2022-07-04T02:03:07;100905.16;;;20.09;100.00
9750;BME280;4914;43.218;27.908;2022-07-04T02:05:34;100917.59;;;20.10;100.00
9750;BME280;4914;43.218;27.908;2022-07-04T02:08:02;100907.69;;;20.02;100.00
9750;BME280;4914;43.218;27.908;2022-07-04T02:10:30;100900.63;;;19.93;100.00
9750;BME280;4914;43.218;27.908;2022-07-04T02:12:57;100910.75;;;19.83;100.00
9750;BME280;4914;43.218;27.908;2022-07-04T02:15:30;100916.50;;;19.80;100.00
9750;BME280;4914;43.218;27.908;2022-07-04T02:17:59;100917.50;;;19.79;100.00
9750;BME280;4914;43.218;27.908;2022-07-04T02:20:26;100915.47;;;19.73;100.00
9750;BME280;4914;43.218;27.908;2022-07-04T02:22:53;100925.25;;;19.74;100.00
9750;BME280;4914;43.218;27.908;2022-07-04T02:25:20;100923.56;;;19.73;100.00
9750;BME280;4914;43.218;27.908;2022-07-04T02:27:48;100925.91;;;19.84;100.00
9750;BME280;4914;43.218;27.908;2022-07-04T02:30:15;100931.97;;;19.86;100.00
9750;BME280;4914;43.218;27.908;2022-07-04T02:32:43;100927.09;;;19.90;100.00
9750;BME280;4914;43.218;27.908;2022-07-04T02:35:10;100929.59;;;19.91;100.00
9750;BME280;4914;43.218;27.908;2022-07-04T02:37:37;100931.94;;;20.02;100.00
9750;BME280;4914;43.218;27.908;2022-07-04T02:40:06;100936.66;;;20.09;100.00
9750;BME280;4914;43.218;27.908;2022-07-04T02:42:34;100930.75;;;20.05;100.00
9750;BME280;4914;43.218;27.908;2022-07-04T02:45:03;100927.88;;;20.07;100.00
9750;BME280;4914;43.218;27.908;2022-07-04T02:47:30;100929.38;;;20.17;100.00
9750;BME280;4914;43.218;27.908;2022-07-04T02:49:57;100936.50;;;20.02;100.00
9750;BME280;4914;43.218;27.908;2022-07-04T02:52:24;100937.72;;;19.75;100.00
9750;BME280;4914;43.218;27.908;2022-07-04T02:54:50;100944.59;;;19.62;100.00
9750;BME280;4914;43.218;27.908;2022-07-04T02:57:18;100939.06;;;19.55;100.00
9750;BME280;4914;43.218;27.908;2022-07-04T02:59:45;100947.63;;;19.67;100.00
9750;BME280;4914;43.218;27.908;2022-07-04T03:02:13;100947.81;;;19.73;100.00
9750;BME280;4914;43.218;27.908;2022-07-04T03:04:40;100944.44;;;19.71;100.00
9750;BME280;4914;43.218;27.908;2022-07-04T03:07:07;100947.81;;;19.57;100.00
9750;BME280;4914;43.218;27.908;2022-07-04T03:09:34;100951.84;;;19.45;100.00
9750;BME280;4914;43.218;27.908;2022-07-04T03:12:01;100959.56;;;19.40;100.00
9750;BME280;4914;43.218;27.908;2022-07-04T03:14:28;100958.38;;;19.34;100.00
9750;BME280;4914;43.218;27.908;2022-07-04T03:16:55;100956.19;;;19.30;100.00
9750;BME280;4914;43.218;27.908;2022-07-04T03:19:23;100959.56;;;19.32;100.00
9750;BME280;4914;43.218;27.908;2022-07-04T03:21:50;100959.06;;;19.36;100.00
9750;BME280;4914;43.218;27.908;2022-07-04T03:24:17;100955.88;;;19.41;100.00
9750;BME280;4914;43.218;27.908;2022-07-04T03:26:44;100955.25;;;19.47;100.00
9750;BME280;4914;43.218;27.908;2022-07-04T03:29:10;100955.22;;;19.55;100.00
9750;BME280;4914;43.218;27.908;2022-07-04T03:31:37;100956.91;;;19.56;100.00
9750;BME280;4914;43.218;27.908;2022-07-04T03:34:04;100969.34;;;19.57;100.00
9750;BME280;4914;43.218;27.908;2022-07-04T03:36:32;100952.53;;;19.63;100.00
9750;BME280;4914;43.218;27.908;2022-07-04T03:38:59;100954.56;;;19.69;100.00
9750;BME280;4914;43.218;27.908;2022-07-04T03:41:26;100953.03;;;19.75;100.00
9750;BME280;4914;43.218;27.908;2022-07-04T03:43:53;100954.22;;;19.80;100.00
9750;BME280;4914;43.218;27.908;2022-07-04T03:46:20;100947.47;;;19.76;100.00
9750;BME280;4914;43.218;27.908;2022-07-04T03:48:47;100952.34;;;19.89;100.00
9750;BME280;4914;43.218;27.908;2022-07-04T03:51:14;100950.16;;;19.92;100.00
9750;BME280;4914;43.218;27.908;2022-07-04T03:53:42;100949.47;;;19.98;100.00
9750;BME280;4914;43.218;27.908;2022-07-04T03:56:09;100947.44;;;20.00;100.00
9750;BME280;4914;43.218;27.908;2022-07-04T03:58:36;100950.47;;;20.06;100.00
9750;BME280;4914;43.218;27.908;2022-07-04T04:01:03;100956.19;;;20.19;100.00
9750;BME280;4914;43.218;27.908;2022-07-04T04:03:30;100948.06;;;20.27;100.00
9750;BME280;4914;43.218;27.908;2022-07-04T04:06:14;100957.16;;;20.42;100.00
9750;BME280;4914;43.218;27.908;2022-07-04T04:08:43;100956.13;;;20.51;100.00
9750;BME280;4914;43.218;27.908;2022-07-04T04:11:10;100953.75;;;20.56;100.00
9750;BME280;4914;43.218;27.908;2022-07-04T04:13:37;100958.75;;;20.67;100.00
9750;BME280;4914;43.218;27.908;2022-07-04T04:16:04;100952.31;;;20.76;100.00
9750;BME280;4914;43.218;27.908;2022-07-04T04:18:30;100957.50;;;20.86;100.00
9750;BME280;4914;43.218;27.908;2022-07-04T04:20:57;100954.38;;;20.97;100.00
9750;BME280;4914;43.218;27.908;2022-07-04T04:23:24;100957.06;;;21.05;100.00
9750;BME280;4914;43.218;27.908;2022-07-04T04:25:53;100962.47;;;21.05;100.00
9750;BME280;4914;43.218;27.908;2022-07-04T04:28:19;100951.25;;;21.16;100.00
9750;BME280;4914;43.218;27.908;2022-07-04T04:30:46;100952.78;;;21.19;100.00
9750;BME280;4914;43.218;27.908;2022-07-04T04:33:13;100955.03;;;21.30;100.00
9750;BME280;4914;43.218;27.908;2022-07-04T04:35:40;100945.69;;;21.41;100.00
9750;BME280;4914;43.218;27.908;2022-07-04T04:38:07;100952.84;;;21.56;100.00
9750;BME280;4914;43.218;27.908;2022-07-04T04:40:34;100950.72;;;21.66;100.00
9750;BME280;4914;43.218;27.908;2022-07-04T04:43:02;100946.75;;;21.77;100.00
9750;BME280;4914;43.218;27.908;2022-07-04T04:45:29;100947.69;;;21.84;100.00
9750;BME280;4914;43.218;27.908;2022-07-04T04:47:56;100943.38;;;21.98;100.00
9750;BME280;4914;43.218;27.908;2022-07-04T04:50:23;100948.16;;;22.10;100.00
9750;BME280;4914;43.218;27.908;2022-07-04T04:52:49;100934.06;;;22.15;100.00
9750;BME280;4914;43.218;27.908;2022-07-04T04:55:16;100933.81;;;22.25;100.00
9750;BME280;4914;43.218;27.908;2022-07-04T04:57:43;100944.91;;;22.44;100.00
9750;BME280;4914;43.218;27.908;2022-07-04T05:00:12;100945.38;;;22.48;100.00
9750;BME280;4914;43.218;27.908;2022-07-04T05:02:40;100943.84;;;22.60;100.00
9750;BME280;4914;43.218;27.908;2022-07-04T05:05:07;100947.88;;;22.79;100.00
9750;BME280;4914;43.218;27.908;2022-07-04T05:07:34;100947.47;;;22.96;100.00
9750;BME280;4914;43.218;27.908;2022-07-04T05:10:01;100962.00;;;23.10;100.00
9750;BME280;4914;43.218;27.908;2022-07-04T05:12:28;100962.38;;;23.07;100.00
9750;BME280;4914;43.218;27.908;2022-07-04T05:14:55;100963.53;;;23.34;100.00
9750;BME280;4914;43.218;27.908;2022-07-04T05:17:24;100960.38;;;23.30;100.00
9750;BME280;4914;43.218;27.908;2022-07-04T05:19:51;100961.69;;;23.20;100.00
9750;BME280;4914;43.218;27.908;2022-07-04T05:22:17;100962.69;;;23.33;100.00
9750;BME280;4914;43.218;27.908;2022-07-04T05:24:44;100953.38;;;23.42;100.00
9750;BME280;4914;43.218;27.908;2022-07-04T05:27:11;100954.13;;;23.51;100.00
9750;BME280;4914;43.218;27.908;2022-07-04T05:29:38;100965.38;;;23.48;100.00
9750;BME280;4914;43.218;27.908;2022-07-04T05:32:06;100967.25;;;23.69;99.90
9750;BME280;4914;43.218;27.908;2022-07-04T05:34:35;100969.56;;;23.72;100.00
9750;BME280;4914;43.218;27.908;2022-07-04T05:37:03;100959.78;;;23.77;99.70
9750;BME280;4914;43.218;27.908;2022-07-04T05:39:30;100959.72;;;23.92;98.84
9750;BME280;4914;43.218;27.908;2022-07-04T05:41:56;100963.56;;;24.04;97.74
9750;BME280;4914;43.218;27.908;2022-07-04T05:44:23;100967.28;;;24.03;98.66
9750;BME280;4914;43.218;27.908;2022-07-04T05:46:50;100964.81;;;24.08;99.50
9750;BME280;4914;43.218;27.908;2022-07-04T05:49:17;100968.06;;;24.18;99.49
9750;BME280;4914;43.218;27.908;2022-07-04T05:51:45;100969.47;;;24.42;99.14
9750;BME280;4914;43.218;27.908;2022-07-04T05:54:12;100970.97;;;24.45;100.00
9750;BME280;4914;43.218;27.908;2022-07-04T05:56:39;100963.69;;;24.52;100.00
9750;BME280;4914;43.218;27.908;2022-07-04T05:59:07;100967.06;;;24.54;100.00
9750;BME280;4914;43.218;27.908;2022-07-04T06:01:34;100976.66;;;24.56;100.00
9750;BME280;4914;43.218;27.908;2022-07-04T06:04:01;100978.31;;;24.51;100.00
9750;BME280;4914;43.218;27.908;2022-07-04T06:06:28;100974.97;;;24.49;100.00
9750;BME280;4914;43.218;27.908;2022-07-04T06:08:57;100976.66;;;24.56;100.00
9750;BME280;4914;43.218;27.908;2022-07-04T06:11:24;100983.16;;;24.62;100.00
9750;BME280;4914;43.218;27.908;2022-07-04T06:13:51;100989.63;;;24.61;100.00
9750;BME280;4914;43.218;27.908;2022-07-04T06:16:18;100997.56;;;24.90;100.00
9750;BME280;4914;43.218;27.908;2022-07-04T06:18:45;100983.81;;;24.98;100.00
9750;BME280;4914;43.218;27.908;2022-07-04T06:21:12;100991.53;;;25.01;100.00
9750;BME280;4914;43.218;27.908;2022-07-04T06:23:38;100994.72;;;25.11;100.00
9750;BME280;4914;43.218;27.908;2022-07-04T06:26:07;100985.31;;;25.14;100.00
9750;BME280;4914;43.218;27.908;2022-07-04T06:28:34;100989.09;;;25.19;100.00
9750;BME280;4914;43.218;27.908;2022-07-04T06:31:01;100981.59;;;25.22;100.00
9750;BME280;4914;43.218;27.908;2022-07-04T06:33:28;100990.84;;;25.40;100.00
9750;BME280;4914;43.218;27.908;2022-07-04T06:35:55;100973.66;;;25.27;100.00
9750;BME280;4914;43.218;27.908;2022-07-04T06:38:23;100986.19;;;25.28;100.00
9750;BME280;4914;43.218;27.908;2022-07-04T06:40:53;100978.47;;;25.31;100.00
9750;BME280;4914;43.218;27.908;2022-07-04T06:43:22;100982.03;;;25.38;100.00
9750;BME280;4914;43.218;27.908;2022-07-04T06:45:49;100980.34;;;25.31;100.00
9750;BME280;4914;43.218;27.908;2022-07-04T06:48:16;100974.44;;;25.07;100.00
9750;BME280;4914;43.218;27.908;2022-07-04T06:50:43;100978.59;;;25.10;100.00
9750;BME280;4914;43.218;27.908;2022-07-04T06:53:11;100982.28;;;24.89;100.00
9750;BME280;4914;43.218;27.908;2022-07-04T06:55:38;100971.88;;;24.93;100.00
9750;BME280;4914;43.218;27.908;2022-07-04T06:58:07;100977.38;;;25.12;100.00
9750;BME280;4914;43.218;27.908;2022-07-04T07:00:35;100980.94;;;25.19;100.00
9750;BME280;4914;43.218;27.908;2022-07-04T07:03:03;100984.91;;;25.24;100.00
9750;BME280;4914;43.218;27.908;2022-07-04T07:05:30;100985.53;;;25.12;100.00
9750;BME280;4914;43.218;27.908;2022-07-04T07:07:57;100990.78;;;25.21;100.00
9750;BME280;4914;43.218;27.908;2022-07-04T07:10:24;100995.41;;;25.27;100.00
9750;BME280;4914;43.218;27.908;2022-07-04T07:12:51;101002.09;;;25.31;100.00
9750;BME280;4914;43.218;27.908;2022-07-04T07:15:18;100990.78;;;25.21;100.00
9750;BME280;4914;43.218;27.908;2022-07-04T07:17:46;100992.25;;;25.30;100.00
9750;BME280;4914;43.218;27.908;2022-07-04T07:20:13;101001.06;;;25.32;100.00
9750;BME280;4914;43.218;27.908;2022-07-04T07:22:40;100981.59;;;25.28;100.00
9750;BME280;4914;43.218;27.908;2022-07-04T07:25:08;100986.19;;;25.21;100.00
9750;BME280;4914;43.218;27.908;2022-07-04T07:27:35;100987.00;;;25.15;100.00
9750;BME280;4914;43.218;27.908;2022-07-04T07:30:03;100984.47;;;25.13;100.00
9750;BME280;4914;43.218;27.908;2022-07-04T07:32:30;100987.41;;;25.12;100.00
9750;BME280;4914;43.218;27.908;2022-07-04T07:34:58;100989.78;;;25.35;100.00
9750;BME280;4914;43.218;27.908;2022-07-04T07:37:25;100983.59;;;25.60;100.00
9750;BME280;4914;43.218;27.908;2022-07-04T07:39:52;100991.75;;;25.74;100.00
9750;BME280;4914;43.218;27.908;2022-07-04T07:42:19;100988.63;;;25.70;100.00
9750;BME280;4914;43.218;27.908;2022-07-04T07:44:46;100977.13;;;25.94;100.00
9750;BME280;4914;43.218;27.908;2022-07-04T07:47:14;100981.06;;;25.92;100.00
9750;BME280;4914;43.218;27.908;2022-07-04T07:49:41;100985.91;;;25.83;100.00
9750;BME280;4914;43.218;27.908;2022-07-04T07:52:10;100987.59;;;26.04;100.00
9750;BME280;4914;43.218;27.908;2022-07-04T07:54:37;100981.31;;;26.03;100.00
9750;BME280;4914;43.218;27.908;2022-07-04T07:57:04;100990.31;;;25.97;100.00
9750;BME280;4914;43.218;27.908;2022-07-04T07:59:31;100987.16;;;25.87;100.00
9750;BME280;4914;43.218;27.908;2022-07-04T08:01:58;100986.31;;;25.93;100.00
9750;BME280;4914;43.218;27.908;2022-07-04T08:04:25;100984.00;;;25.90;100.00
9750;BME280;4914;43.218;27.908;2022-07-04T08:07:00;100978.78;;;26.22;100.00
9750;BME280;4914;43.218;27.908;2022-07-04T08:09:28;100975.84;;;26.17;100.00
9750;BME280;4914;43.218;27.908;2022-07-04T08:11:55;100987.56;;;26.24;100.00
9750;BME280;4914;43.218;27.908;2022-07-04T08:14:22;100975.41;;;26.39;97.82
9750;BME280;4914;43.218;27.908;2022-07-04T08:16:49;100970.34;;;26.56;98.10
9750;BME280;4914;43.218;27.908;2022-07-04T08:19:15;100972.63;;;26.66;90.51
9750;BME280;4914;43.218;27.908;2022-07-04T08:21:42;100978.31;;;26.51;92.09
9750;BME280;4914;43.218;27.908;2022-07-04T08:24:12;100977.88;;;26.47;84.20
9750;BME280;4914;43.218;27.908;2022-07-04T08:26:40;100970.34;;;26.56;79.37
9750;BME280;4914;43.218;27.908;2022-07-04T08:29:07;100978.88;;;26.79;76.68
9750;BME280;4914;43.218;27.908;2022-07-04T08:31:34;100982.78;;;26.97;64.58
9750;BME280;4914;43.218;27.908;2022-07-04T08:34:01;100988.69;;;26.94;66.14
9750;BME280;4914;43.218;27.908;2022-07-04T08:36:28;100991.63;;;26.92;65.56
9750;BME280;4914;43.218;27.908;2022-07-04T08:38:55;100985.72;;;27.02;61.63
9750;BME280;4914;43.218;27.908;2022-07-04T08:41:22;100982.31;;;27.13;57.05
9750;BME280;4914;43.218;27.908;2022-07-04T08:43:51;100980.91;;;27.35;58.90
9750;BME280;4914;43.218;27.908;2022-07-04T08:46:23;100984.00;;;27.45;65.64
9750;BME280;4914;43.218;27.908;2022-07-04T08:48:52;100978.75;;;27.44;56.36
9750;BME280;4914;43.218;27.908;2022-07-04T08:51:28;100986.38;;;27.35;40.54
9750;BME280;4914;43.218;27.908;2022-07-04T08:53:58;100986.25;;;27.61;37.41
9750;BME280;4914;43.218;27.908;2022-07-04T08:56:27;100981.06;;;27.78;41.23
9750;BME280;4914;43.218;27.908;2022-07-04T08:59:13;100977.47;;;28.09;42.90
9750;BME280;4914;43.218;27.908;2022-07-04T09:01:42;100979.78;;;28.30;40.98
9750;BME280;4914;43.218;27.908;2022-07-04T09:04:10;100964.53;;;27.98;46.29
9750;BME280;4914;43.218;27.908;2022-07-04T09:06:37;100967.38;;;28.09;44.95
9750;BME280;4914;43.218;27.908;2022-07-04T09:09:05;100969.47;;;28.32;45.38
9750;BME280;4914;43.218;27.908;2022-07-04T09:11:33;100965.09;;;28.49;44.26
9750;BME280;4914;43.218;27.908;2022-07-04T09:14:00;100966.41;;;28.83;38.55
9750;BME280;4914;43.218;27.908;2022-07-04T09:16:28;100982.19;;;28.99;30.79
9750;BME280;4914;43.218;27.908;2022-07-04T09:18:55;100968.34;;;29.13;35.66
9750;BME280;4914;43.218;27.908;2022-07-04T09:21:23;100964.22;;;29.40;37.44
9750;BME280;4914;43.218;27.908;2022-07-04T09:24:08;100972.91;;;29.49;32.04
9750;BME280;4914;43.218;27.908;2022-07-04T09:26:40;100976.28;;;29.74;31.54
9750;BME280;4914;43.218;27.908;2022-07-04T09:29:06;100963.44;;;29.63;32.90
9750;BME280;4914;43.218;27.908;2022-07-04T09:31:37;100973.97;;;29.48;33.74
9750;BME280;4914;43.218;27.908;2022-07-04T09:34:05;100978.81;;;29.87;33.27
9750;BME280;4914;43.218;27.908;2022-07-04T09:36:34;100959.44;;;30.47;34.25
9750;BME280;4914;43.218;27.908;2022-07-04T09:39:06;100964.75;;;31.73;34.09
9750;BME280;4914;43.218;27.908;2022-07-04T09:41:50;100956.34;;;32.95;32.92
9750;BME280;4914;43.218;27.908;2022-07-04T09:44:17;100956.53;;;33.10;33.06
9750;BME280;4914;43.218;27.908;2022-07-04T09:46:45;100951.66;;;35.02;32.96
9750;BME280;4914;43.218;27.908;2022-07-04T09:49:12;100961.22;;;35.92;29.10
9750;BME280;4914;43.218;27.908;2022-07-04T09:51:41;100963.38;;;35.65;30.48
9750;BME280;4914;43.218;27.908;2022-07-04T09:54:20;100960.66;;;36.15;27.83
9750;BME280;4914;43.218;27.908;2022-07-04T09:56:51;100954.16;;;37.25;29.75
9750;BME280;4914;43.218;27.908;2022-07-04T09:59:19;100956.06;;;36.75;30.70
9750;BME280;4914;43.218;27.908;2022-07-04T10:01:48;100950.81;;;37.28;31.77
9750;BME280;4914;43.218;27.908;2022-07-04T10:04:15;100959.56;;;37.45;29.12
9750;BME280;4914;43.218;27.908;2022-07-04T10:06:43;100953.88;;;36.72;28.96
9750;BME280;4914;43.218;27.908;2022-07-04T10:09:12;100958.13;;;36.09;28.91
9750;BME280;4914;43.218;27.908;2022-07-04T10:11:41;100966.09;;;37.98;25.74
9750;BME280;4914;43.218;27.908;2022-07-04T10:14:10;100962.91;;;36.93;27.37
9750;BME280;4914;43.218;27.908;2022-07-04T10:16:38;100961.97;;;37.90;25.21
9750;BME280;4914;43.218;27.908;2022-07-04T10:19:07;100953.41;;;36.35;29.00
9750;BME280;4914;43.218;27.908;2022-07-04T10:21:35;100964.09;;;36.72;28.28
9750;BME280;4914;43.218;27.908;2022-07-04T10:24:02;100965.59;;;37.52;25.63
9750;BME280;4914;43.218;27.908;2022-07-04T10:26:30;100953.91;;;37.21;23.14
9750;BME280;4914;43.218;27.908;2022-07-04T10:28:57;100964.69;;;36.58;25.17
9750;BME280;4914;43.218;27.908;2022-07-04T10:31:26;100961.47;;;35.91;23.50
9750;BME280;4914;43.218;27.908;2022-07-04T10:33:54;100963.94;;;36.22;25.25
9750;BME280;4914;43.218;27.908;2022-07-04T10:36:24;100961.16;;;37.51;27.78
9750;BME280;4914;43.218;27.908;2022-07-04T10:38:54;100961.31;;;38.04;25.05
9750;BME280;4914;43.218;27.908;2022-07-04T10:41:22;100952.41;;;36.85;24.68
9750;BME280;4914;43.218;27.908;2022-07-04T10:44:07;100959.13;;;36.74;23.21
9750;BME280;4914;43.218;27.908;2022-07-04T10:46:47;100961.09;;;36.58;27.36
9750;BME280;4914;43.218;27.908;2022-07-04T10:49:21;100954.34;;;36.84;25.39
9750;BME280;4914;43.218;27.908;2022-07-04T10:51:51;100960.53;;;37.25;24.85
9750;BME280;4914;43.218;27.908;2022-07-04T10:54:19;100960.59;;;38.22;25.92
9750;BME280;4914;43.218;27.908;2022-07-04T10:56:51;100964.53;;;38.16;25.87
9750;BME280;4914;43.218;27.908;2022-07-04T10:59:21;100946.72;;;38.22;27.73
9750;BME280;4914;43.218;27.908;2022-07-04T11:01:50;100949.72;;;38.25;26.42
9750;BME280;4914;43.218;27.908;2022-07-04T11:04:46;100950.75;;;37.33;26.46
9750;BME280;4914;43.218;27.908;2022-07-04T11:07:16;100939.34;;;37.78;27.54
9750;BME280;4914;43.218;27.908;2022-07-04T11:09:43;100952.19;;;37.30;25.04
9750;BME280;4914;43.218;27.908;2022-07-04T11:12:11;100944.06;;;36.95;28.23
9750;BME280;4914;43.218;27.908;2022-07-04T11:14:41;100933.69;;;36.66;29.18
9750;BME280;4914;43.218;27.908;2022-07-04T11:17:10;100929.72;;;35.78;30.94
9750;BME280;4914;43.218;27.908;2022-07-04T11:19:38;100922.78;;;35.65;29.70
9750;BME280;4914;43.218;27.908;2022-07-04T11:22:06;100927.44;;;35.55;30.66
9750;BME280;4914;43.218;27.908;2022-07-04T11:24:36;100921.66;;;35.56;30.69
9750;BME280;4914;43.218;27.908;2022-07-04T11:27:04;100921.38;;;35.63;32.09
9750;BME280;4914;43.218;27.908;2022-07-04T11:29:33;100923.88;;;35.34;31.18
9750;BME280;4914;43.218;27.908;2022-07-04T11:32:01;100924.13;;;35.27;31.85
9750;BME280;4914;43.218;27.908;2022-07-04T11:34:32;100920.81;;;35.40;30.99
9750;BME280;4914;43.218;27.908;2022-07-04T11:37:01;100925.34;;;34.74;33.83
9750;BME280;4914;43.218;27.908;2022-07-04T11:39:32;100926.06;;;32.30;36.62
9750;BME280;4914;43.218;27.908;2022-07-04T11:42:01;100923.25;;;32.25;36.54
9750;BME280;4914;43.218;27.908;2022-07-04T11:44:45;100918.31;;;31.27;40.89
9750;BME280;4914;43.218;27.908;2022-07-04T11:47:35;100926.09;;;30.50;44.58
9750;BME280;4914;43.218;27.908;2022-07-04T11:50:05;100923.44;;;30.43;44.34
9750;BME280;4914;43.218;27.908;2022-07-04T11:52:39;100906.88;;;30.38;44.32
9750;BME280;4914;43.218;27.908;2022-07-04T11:55:08;100914.63;;;30.53;43.53
9750;BME280;4914;43.218;27.908;2022-07-04T11:57:38;100926.69;;;30.17;41.82
9750;BME280;4914;43.218;27.908;2022-07-04T12:00:07;100926.69;;;30.28;42.43
9750;BME280;4914;43.218;27.908;2022-07-04T12:02:34;100926.19;;;30.31;41.14
9750;BME280;4914;43.218;27.908;2022-07-04T12:05:03;100922.53;;;29.91;43.49
9750;BME280;4914;43.218;27.908;2022-07-04T12:07:32;100914.31;;;29.91;43.94
9750;BME280;4914;43.218;27.908;2022-07-04T12:10:08;100928.66;;;29.75;44.20
9750;BME280;4914;43.218;27.908;2022-07-04T12:12:50;100929.97;;;29.61;44.39
9750;BME280;4914;43.218;27.908;2022-07-04T12:15:17;100930.22;;;29.59;44.86
9750;BME280;4914;43.218;27.908;2022-07-04T12:17:44;100932.13;;;29.29;45.05
9750;BME280;4914;43.218;27.908;2022-07-04T12:20:12;100922.06;;;29.41;44.65
9750;BME280;4914;43.218;27.908;2022-07-04T12:22:41;100921.59;;;29.14;45.59
9750;BME280;4914;43.218;27.908;2022-07-04T12:25:20;100927.88;;;29.33;46.44
9750;BME280;4914;43.218;27.908;2022-07-04T12:27:54;100926.19;;;29.02;46.70
9750;BME280;4914;43.218;27.908;2022-07-04T12:30:21;100914.28;;;28.96;46.89
9750;BME280;4914;43.218;27.908;2022-07-04T12:32:50;100923.34;;;28.79;46.97
9750;BME280;4914;43.218;27.908;2022-07-04T12:35:40;100915.59;;;28.57;48.46
9750;BME280;4914;43.218;27.908;2022-07-04T12:38:10;100907.84;;;28.36;49.37
9750;BME280;4914;43.218;27.908;2022-07-04T12:40:51;100914.31;;;28.60;50.11
9750;BME280;4914;43.218;27.908;2022-07-04T12:43:20;100911.97;;;28.82;50.23
9750;BME280;4914;43.218;27.908;2022-07-04T12:45:49;100909.00;;;29.13;48.25
9750;BME280;4914;43.218;27.908;2022-07-04T12:48:18;100909.81;;;29.14;47.58
9750;BME280;4914;43.218;27.908;2022-07-04T12:50:45;100908.72;;;29.03;48.33
9750;BME280;4914;43.218;27.908;2022-07-04T12:53:12;100909.75;;;29.20;48.16
9750;BME280;4914;43.218;27.908;2022-07-04T12:55:41;100912.78;;;29.12;48.25
9750;BME280;4914;43.218;27.908;2022-07-04T12:58:09;100914.81;;;29.46;48.31
9750;BME280;4914;43.218;27.908;2022-07-04T13:00:37;100914.97;;;29.63;47.57
9750;BME280;4914;43.218;27.908;2022-07-04T13:03:05;100908.06;;;29.61;48.13